Time;durP1;ratioP1;P1;durP2;ratioP2;P2;SDS_P1;SDS_P2;PMS_P1;PMS_P2;Temp;Humidity;BMP_temperature;BMP_pressure;BME280_temperature;BME280_humidity;BME280_pressure;Samples;Min_cycle;Max_cycle;Signal;HPM_P1;HPM_P2
2023/04/02 00:01:18;;;;;;;0.20;0.20;;;;;;;18.87;47.14;100413.94;5099506;28;20059;-47
2023/04/02 00:09:20;;;;;;;0.20;0.20;;;;;;;18.87;47.27;100422.22;5174508;27;20578;-45
2023/04/02 00:11:48;;;;;;;0.28;0.28;;;;;;;18.88;47.31;100432.19;5153610;27;20046;-44
2023/04/02 00:14:17;;;;;;;0.30;0.30;;;;;;;18.88;47.55;100434.94;5117849;27;20420;-48
2023/04/02 00:16:43;;;;;;;0.28;0.28;;;;;;;18.88;47.13;100437.69;5153013;27;20087;-47
2023/04/02 00:19:17;;;;;;;0.30;0.30;;;;;;;18.87;47.16;100450.66;5153310;27;20209;-47
2023/04/02 00:21:44;;;;;;;0.30;0.30;;;;;;;18.86;47.49;100449.00;5153288;27;20051;-47
2023/04/02 00:24:14;;;;;;;0.30;0.30;;;;;;;18.88;47.21;100457.00;5153883;27;20046;-47
2023/04/02 00:26:46;;;;;;;0.20;0.20;;;;;;;18.87;47.41;100466.38;5152462;27;20046;-48
2023/04/02 00:29:14;;;;;;;0.22;0.22;;;;;;;18.88;47.34;100465.28;5133995;27;20070;-47
2023/04/02 00:31:43;;;;;;;0.20;0.20;;;;;;;18.87;47.33;100458.94;5133997;27;20043;-48
2023/04/02 00:34:17;;;;;;;0.30;0.30;;;;;;;18.87;47.40;100467.22;5111737;27;20048;-48
2023/04/02 00:36:43;;;;;;;0.30;0.30;;;;;;;18.88;47.49;100476.31;5111228;28;20483;-48
2023/04/02 00:39:18;;;;;;;0.30;0.30;;;;;;;18.88;47.26;100479.09;5113070;27;20044;-48
2023/04/02 00:41:45;;;;;;;0.30;0.30;;;;;;;18.87;47.34;100492.06;5113378;27;20043;-47
2023/04/02 00:44:13;;;;;;;0.30;0.30;;;;;;;18.88;47.42;100490.13;5117013;27;20051;-47
2023/04/02 00:46:45;;;;;;;0.20;0.20;;;;;;;18.88;47.50;100492.88;5113502;27;20178;-47
2023/04/02 00:49:20;;;;;;;0.25;0.25;;;;;;;18.86;47.29;100501.41;5114230;27;20039;-47
2023/04/02 00:51:52;;;;;;;0.20;0.20;;;;;;;18.87;47.50;100503.09;5131675;27;20410;-48
2023/04/02 00:54:20;;;;;;;0.20;0.20;;;;;;;18.86;47.48;100509.69;5131932;27;20495;-48
2023/04/02 00:56:47;;;;;;;0.30;0.30;;;;;;;18.87;47.47;100516.88;5132038;27;20051;-47
2023/04/02 00:59:24;;;;;;;0.20;0.20;;;;;;;18.88;47.38;100520.47;5113572;27;20082;-47
2023/04/02 01:01:53;;;;;;;0.30;0.30;;;;;;;18.87;47.29;100524.31;5131564;27;20054;-48
2023/04/02 01:04:35;;;;;;;0.20;0.20;;;;;;;18.87;47.43;100530.69;5096891;27;20043;-48
2023/04/02 01:07:03;;;;;;;0.20;0.20;;;;;;;18.87;47.30;100530.69;5131845;27;20047;-48
2023/04/02 01:09:44;;;;;;;0.30;0.30;;;;;;;18.87;47.34;100541.72;5131840;27;20043;-48
2023/04/02 01:12:25;;;;;;;0.20;0.20;;;;;;;18.88;47.49;100537.03;5113020;27;20097;-47
2023/04/02 01:15:16;;;;;;;0.30;0.30;;;;;;;18.86;47.35;100545.56;5131986;27;20050;-47
2023/04/02 01:18:00;;;;;;;0.30;0.30;;;;;;;18.88;47.30;100548.06;5117425;27;20046;-47
2023/04/02 01:20:49;;;;;;;0.20;0.20;;;;;;;18.88;47.49;100550.81;5117997;27;20525;-47
2023/04/02 01:23:23;;;;;;;0.30;0.30;;;;;;;18.87;47.26;100561.03;5102639;28;20194;-48
2023/04/02 01:26:12;;;;;;;0.30;0.30;;;;;;;18.87;47.45;100557.41;5118255;28;20186;-48
2023/04/02 01:29:00;;;;;;;0.30;0.30;;;;;;;18.86;47.32;100564.06;5103225;28;20070;-47
2023/04/02 01:31:27;;;;;;;0.30;0.30;;;;;;;18.86;47.38;100564.88;5102762;28;20549;-47
2023/04/02 01:33:53;;;;;;;0.30;0.30;;;;;;;18.86;47.34;100570.41;5099285;28;20482;-47
2023/04/02 01:36:33;;;;;;;0.30;0.30;;;;;;;18.87;47.70;100582.25;5099872;28;20171;-47
2023/04/02 01:39:14;;;;;;;0.30;0.30;;;;;;;18.86;47.29;100578.69;5117784;27;20433;-48
2023/04/02 01:41:47;;;;;;;0.30;0.30;;;;;;;18.87;47.17;100590.53;5088732;28;20035;-48
2023/04/02 01:44:19;;;;;;;0.30;0.30;;;;;;;18.87;47.33;100587.78;5115293;28;20070;-48
2023/04/02 01:46:47;;;;;;;0.20;0.20;;;;;;;18.87;47.35;100590.53;5116031;28;20090;-47
2023/04/02 01:49:15;;;;;;;0.20;0.20;;;;;;;18.87;47.39;100596.06;5099027;28;20047;-47
2023/04/02 01:51:43;;;;;;;0.20;0.20;;;;;;;18.87;47.41;100601.56;5098183;28;20047;-48
2023/04/02 01:54:09;;;;;;;0.20;0.20;;;;;;;18.87;47.18;100607.09;5117129;28;20043;-47
2023/04/02 01:56:35;;;;;;;0.30;0.30;;;;;;;18.86;47.47;100606.25;5099331;28;20051;-48
2023/04/02 01:59:04;;;;;;;0.20;0.20;;;;;;;18.87;47.21;100607.09;5098835;28;20479;-48
2023/04/02 02:01:34;;;;;;;0.30;0.30;;;;;;;18.87;47.49;100612.59;5098991;28;20319;-47
2023/04/02 02:04:00;;;;;;;0.30;0.30;;;;;;;18.87;47.31;100627.25;5116953;28;20051;-49
2023/04/02 02:06:26;;;;;;;0.20;0.20;;;;;;;18.87;47.22;100624.50;5117256;28;20486;-47
2023/04/02 02:08:58;;;;;;;0.30;0.30;;;;;;;18.86;47.25;100631.09;5117213;28;20039;-47
2023/04/02 02:11:27;;;;;;;0.30;0.30;;;;;;;18.87;47.23;100641.03;5098132;28;20100;-48
2023/04/02 02:13:57;;;;;;;0.30;0.30;;;;;;;18.86;47.50;100647.66;5098749;28;20134;-49
2023/04/02 02:16:23;;;;;;;0.30;0.30;;;;;;;18.86;47.30;100650.41;5098511;28;20092;-48
2023/04/02 02:18:51;;;;;;;0.25;0.25;;;;;;;18.87;47.45;100649.31;5117444;28;20059;-48
2023/04/02 02:21:30;;;;;;;0.30;0.30;;;;;;;18.87;47.27;100656.75;5098427;28;20043;-49
2023/04/02 02:23:56;;;;;;;0.30;0.30;;;;;;;18.86;47.49;100649.59;5116769;28;20530;-48
2023/04/02 02:26:23;;;;;;;0.30;0.30;;;;;;;18.87;47.59;100665.88;5116591;28;20046;-48
2023/04/02 02:28:50;;;;;;;0.30;0.30;;;;;;;18.87;46.98;100668.63;5116803;28;20079;-49
2023/04/02 02:31:21;;;;;;;0.30;0.30;;;;;;;18.87;47.27;100674.16;5110293;27;20085;-47
2023/04/02 02:33:50;;;;;;;0.20;0.20;;;;;;;18.87;47.26;100682.44;5088285;28;20697;-47
2023/04/02 02:36:32;;;;;;;0.20;0.20;;;;;;;18.87;47.53;100689.84;5077710;28;20044;-47
2023/04/02 02:39:19;;;;;;;0.20;0.20;;;;;;;18.87;47.30;100689.84;5078158;28;20097;-48
2023/04/02 02:41:49;;;;;;;0.20;0.20;;;;;;;18.87;47.53;100693.47;5107824;28;20043;-47
2023/04/02 02:44:19;;;;;;;0.20;0.20;;;;;;;18.86;47.57;100700.06;5097776;28;20072;-48
2023/04/02 02:47:09;;;;;;;0.25;0.25;;;;;;;18.87;47.49;100696.22;5099023;28;20071;-47
2023/04/02 02:49:38;;;;;;;0.20;0.20;;;;;;;18.86;47.27;100705.59;5102156;28;20085;-47
2023/04/02 02:52:15;;;;;;;0.20;0.20;;;;;;;18.87;47.52;100711.94;5116011;28;20043;-48
2023/04/02 02:54:44;;;;;;;0.20;0.20;;;;;;;18.86;47.47;100713.88;5116300;28;20481;-48
2023/04/02 02:57:14;;;;;;;0.20;0.20;;;;;;;18.87;47.42;100725.72;5097737;28;20142;-48
2023/04/02 02:59:41;;;;;;;0.20;0.20;;;;;;;18.87;47.45;100722.97;5098143;28;20434;-48
2023/04/02 03:02:07;;;;;;;0.30;0.30;;;;;;;18.87;47.38;100736.78;5097559;28;20043;-48
2023/04/02 03:04:36;;;;;;;0.30;0.30;;;;;;;18.86;47.18;100740.63;5097810;28;20045;-47
2023/04/02 03:07:02;;;;;;;0.20;0.20;;;;;;;18.87;47.57;100748.66;5116002;28;20047;-49
2023/04/02 03:12:26;;;;;;;0.20;0.20;;;;;;;18.90;47.27;100758.28;5173509;27;20352;-45
2023/04/02 03:15:00;;;;;;;0.20;0.20;;;;;;;18.90;47.17;100761.88;5153381;27;20058;-44
2023/04/02 03:17:48;;;;;;;0.30;0.30;;;;;;;18.88;47.33;100775.13;5153321;27;20074;-44
2023/04/02 03:20:21;;;;;;;0.20;0.20;;;;;;;18.88;47.56;100768.78;5138449;27;20047;-47
2023/04/02 03:22:55;;;;;;;0.20;0.20;;;;;;;18.87;47.40;100770.72;5153411;27;20129;-45
2023/04/02 03:25:26;;;;;;;0.20;0.20;;;;;;;18.86;47.30;100780.09;5153268;27;20050;-46
2023/04/02 03:27:57;;;;;;;0.20;0.20;;;;;;;18.87;47.58;100780.91;5153364;27;20050;-45
2023/04/02 03:30:44;;;;;;;0.28;0.28;;;;;;;18.88;47.12;100790.88;5153099;27;20177;-46
2023/04/02 03:33:38;;;;;;;0.30;0.30;;;;;;;18.86;47.17;100791.13;5147847;27;20649;-44
2023/04/02 03:36:29;;;;;;;0.30;0.30;;;;;;;18.86;47.47;100804.94;5131356;27;20415;-45
2023/04/02 03:41:47;;;;;;;0.30;0.30;;;;;;;18.86;47.39;100813.19;5175414;27;20116;-46
2023/04/02 03:44:20;;;;;;;0.30;0.30;;;;;;;18.87;47.40;100822.31;5131874;27;20534;-45
2023/04/02 03:46:56;;;;;;;0.30;0.30;;;;;;;18.86;47.40;100827.00;5133221;27;20054;-45
2023/04/02 03:49:27;;;;;;;0.22;0.22;;;;;;;18.86;47.47;100838.03;5146564;27;20210;-46
2023/04/02 03:51:59;;;;;;;0.30;0.30;;;;;;;18.86;47.33;100837.22;5142891;27;20038;-46
2023/04/02 03:54:26;;;;;;;0.20;0.20;;;;;;;18.86;47.29;100843.56;5153657;27;20050;-45
2023/04/02 03:56:52;;;;;;;0.20;0.20;;;;;;;18.86;47.51;100851.00;5153437;27;20042;-45
2023/04/02 03:59:30;;;;;;;0.20;0.20;;;;;;;18.86;47.53;100856.53;5153509;27;20049;-45
2023/04/02 04:02:00;;;;;;;0.20;0.20;;;;;;;18.85;47.49;100874.19;5118677;27;20516;-45
2023/04/02 04:04:27;;;;;;;0.20;0.20;;;;;;;18.85;47.41;100863.97;5153300;27;20107;-44
2023/04/02 04:06:55;;;;;;;0.30;0.30;;;;;;;18.86;47.43;100870.31;5116923;27;20099;-45
2023/04/02 04:09:28;;;;;;;0.30;0.30;;;;;;;18.87;47.39;100874.72;5133943;27;20286;-46
2023/04/02 04:12:22;;;;;;;0.30;0.30;;;;;;;18.85;47.55;100883.28;5117247;27;20515;-45
2023/04/02 04:15:00;;;;;;;0.20;0.20;;;;;;;18.85;47.54;100883.28;5135535;27;20407;-45
2023/04/02 04:17:50;;;;;;;0.20;0.20;;;;;;;18.86;47.44;100889.63;5152968;27;20069;-45
2023/04/02 04:20:20;;;;;;;0.30;0.30;;;;;;;18.86;47.52;100898.75;5152556;27;20046;-46
2023/04/02 04:22:48;;;;;;;0.20;0.20;;;;;;;18.85;47.49;100905.38;5152593;27;20054;-46
2023/04/02 04:25:22;;;;;;;0.20;0.20;;;;;;;18.85;47.26;100901.78;5152825;27;20057;-45
2023/04/02 04:27:57;;;;;;;0.30;0.30;;;;;;;18.85;47.53;100916.41;5134071;27;20150;-44
2023/04/02 04:30:44;;;;;;;0.20;0.20;;;;;;;18.86;47.35;100925.50;5134216;27;20076;-45
2023/04/02 04:33:21;;;;;;;0.20;0.20;;;;;;;18.86;47.32;100931.84;5097421;27;20086;-45
2023/04/02 04:35:56;;;;;;;0.25;0.25;;;;;;;18.87;47.51;100940.94;5114029;27;20058;-46
2023/04/02 04:38:31;;;;;;;0.30;0.30;;;;;;;18.86;47.54;100950.34;5112517;27;20099;-44
2023/04/02 04:41:04;;;;;;;0.20;0.20;;;;;;;18.87;47.44;100952.00;5095165;27;20433;-45
2023/04/02 04:43:42;;;;;;;0.20;0.20;;;;;;;18.86;47.35;100962.22;5095848;27;20065;-45
2023/04/02 04:46:13;;;;;;;0.20;0.20;;;;;;;18.87;47.34;100965.78;5112923;27;20066;-46
2023/04/02 04:48:52;;;;;;;0.20;0.20;;;;;;;18.86;47.50;100975.19;5131393;27;20095;-45
2023/04/02 04:51:19;;;;;;;;;;;;;;;18.86;47.27;100976.00;5126914;27;20502;-45
2023/04/02 04:53:47;;;;;;;0.20;0.20;;;;;;;18.85;47.48;100977.13;5098897;28;19962;-46
2023/04/02 04:56:16;;;;;;;0.30;0.30;;;;;;;18.86;47.25;100983.47;5099342;28;20091;-45
2023/04/02 05:01:51;;;;;;;0.20;0.20;;;;;;;18.85;47.37;101006.63;5173965;27;20139;-45
2023/04/02 05:04:24;;;;;;;0.30;0.30;;;;;;;18.85;47.53;101001.94;5131199;27;20046;-45
2023/04/02 05:07:02;;;;;;;0.30;0.30;;;;;;;18.85;47.34;101012.97;5132531;27;20039;-44
2023/04/02 05:09:33;;;;;;;0.20;0.20;;;;;;;18.85;47.52;101018.50;5130499;27;20449;-45
2023/04/02 05:12:38;;;;;;;0.30;0.30;;;;;;;18.86;47.36;101024.84;5145542;27;20038;-45
2023/04/02 05:15:15;;;;;;;0.30;0.30;;;;;;;18.85;47.31;101040.56;5125699;27;20061;-45
2023/04/02 05:17:46;;;;;;;0.20;0.20;;;;;;;18.85;47.29;101032.31;5134684;27;20129;-45
2023/04/02 05:20:19;;;;;;;0.30;0.30;;;;;;;18.85;47.44;101037.81;5153040;27;20469;-47
2023/04/02 05:22:53;;;;;;;0.20;0.20;;;;;;;18.85;47.52;101037.81;5117292;27;20046;-45
2023/04/02 05:25:22;;;;;;;0.20;0.20;;;;;;;18.86;47.24;101046.91;5153008;27;20091;-45
2023/04/02 05:27:59;;;;;;;0.30;0.30;;;;;;;18.86;47.51;101061.53;5153093;27;20066;-44
2023/04/02 05:33:24;;;;;;;0.20;0.20;;;;;;;18.89;47.20;101063.75;5153671;27;20361;-46
2023/04/02 05:35:56;;;;;;;0.30;0.30;;;;;;;18.89;47.33;101073.97;5142059;27;20054;-45
2023/04/02 05:38:25;;;;;;;0.30;0.30;;;;;;;18.87;47.48;101087.19;5152944;27;20193;-46
2023/04/02 05:40:58;;;;;;;0.20;0.20;;;;;;;18.87;47.19;101095.47;5134397;27;20046;-45
2023/04/02 05:43:25;;;;;;;0.30;0.30;;;;;;;18.87;47.29;101098.25;5153279;27;20496;-46
2023/04/02 05:45:53;;;;;;;0.30;0.30;;;;;;;18.86;47.27;101105.69;5134429;27;20050;-45
2023/04/02 05:48:24;;;;;;;0.30;0.30;;;;;;;18.86;47.49;101104.88;5134632;27;20038;-45
2023/04/02 05:50:52;;;;;;;0.30;0.30;;;;;;;18.86;47.45;101104.88;5134154;27;20065;-45
2023/04/02 05:53:24;;;;;;;0.20;0.20;;;;;;;18.86;47.18;101113.16;5129905;27;20429;-46
2023/04/02 05:55:53;;;;;;;0.30;0.30;;;;;;;18.85;47.33;101126.13;5151624;27;20046;-44
2023/04/02 05:58:26;;;;;;;0.30;0.30;;;;;;;18.86;47.24;101126.94;5151826;27;20050;-47
2023/04/02 06:01:14;;;;;;;0.30;0.30;;;;;;;18.85;47.59;101133.56;5147087;27;20636;-46
2023/04/02 06:03:46;;;;;;;0.20;0.20;;;;;;;18.85;47.51;101141.84;5097132;27;20047;-45
2023/04/02 06:06:22;;;;;;;0.20;0.20;;;;;;;18.85;47.31;101150.94;5113680;27;20475;-44
2023/04/02 06:08:54;;;;;;;0.20;0.20;;;;;;;18.86;47.61;101151.78;5114366;27;20115;-46
2023/04/02 06:11:25;;;;;;;0.20;0.20;;;;;;;18.86;47.36;101155.38;5113778;27;20495;-45
2023/04/02 06:13:51;;;;;;;0.30;0.30;;;;;;;18.85;47.28;101162.00;5131582;27;20043;-47
2023/04/02 06:16:19;;;;;;;0.20;0.20;;;;;;;18.85;47.26;101162.00;5131986;27;20524;-44
2023/04/02 06:18:45;;;;;;;0.20;0.20;;;;;;;18.86;47.55;101173.84;5132926;27;20259;-45
2023/04/02 06:21:13;;;;;;;0.30;0.30;;;;;;;18.86;47.43;101173.84;5132409;27;20137;-45
2023/04/02 06:23:43;;;;;;;0.30;0.30;;;;;;;18.86;47.21;101184.88;5132076;27;20429;-46
2023/04/02 06:26:20;;;;;;;0.30;0.30;;;;;;;18.85;47.41;101186.81;5113566;27;20514;-44
2023/04/02 06:28:51;;;;;;;0.20;0.20;;;;;;;18.85;47.44;101195.09;5113776;27;20480;-44
2023/04/02 06:31:26;;;;;;;0.30;0.30;;;;;;;18.85;47.26;101194.28;5132214;27;20043;-45
2023/04/02 06:33:53;;;;;;;0.30;0.30;;;;;;;18.85;47.26;101205.31;5138688;27;20051;-45
2023/04/02 06:36:20;;;;;;;0.30;0.30;;;;;;;18.85;47.43;101199.81;5151955;27;20077;-45
2023/04/02 06:38:47;;;;;;;0.30;0.30;;;;;;;18.85;47.53;101208.06;5152118;27;20055;-45
2023/04/02 06:41:21;;;;;;;0.30;0.30;;;;;;;18.85;47.38;101213.59;5152968;27;20614;-46
2023/04/02 06:43:53;;;;;;;0.30;0.30;;;;;;;18.85;47.48;101227.41;5123820;27;20042;-45
2023/04/02 06:46:30;;;;;;;0.30;0.30;;;;;;;18.84;47.25;101226.56;5138948;27;20487;-45
2023/04/02 06:49:08;;;;;;;0.30;0.30;;;;;;;18.85;47.42;101227.41;5138653;27;20402;-45
2023/04/02 06:51:35;;;;;;;0.30;0.30;;;;;;;18.85;47.61;101232.91;5120338;27;20074;-44
2023/04/02 06:54:01;;;;;;;0.30;0.30;;;;;;;18.84;47.36;101236.78;5138421;27;20324;-45
2023/04/02 06:56:39;;;;;;;0.30;0.30;;;;;;;18.85;47.51;101241.19;5138548;27;20077;-45
2023/04/02 06:59:06;;;;;;;;;;;;;;;18.84;47.44;101251.41;5137599;27;20082;-45
2023/04/02 07:01:36;;;;;;;0.20;0.20;;;;;;;18.84;47.60;101250.56;5128311;27;19964;-45
2023/04/02 07:04:01;;;;;;;0.20;0.20;;;;;;;18.84;47.21;101259.69;5098598;28;20043;-44
2023/04/02 07:06:27;;;;;;;0.20;0.20;;;;;;;18.85;47.38;101266.03;5117435;28;20047;-45
2023/04/02 07:08:53;;;;;;;0.20;0.20;;;;;;;18.84;47.23;101270.72;5117324;28;20423;-45
2023/04/02 07:11:21;;;;;;;0.20;0.20;;;;;;;18.85;47.53;101282.59;5117331;27;20043;-45
2023/04/02 07:13:47;;;;;;;0.20;0.20;;;;;;;18.85;47.31;101282.59;5098895;28;20180;-47
2023/04/02 07:16:15;;;;;;;0.30;0.30;;;;;;;18.84;47.32;101291.97;5098577;28;20063;-45
2023/04/02 07:18:41;;;;;;;0.20;0.20;;;;;;;18.85;47.17;101296.38;5098302;28;20407;-44
2023/04/02 07:21:07;;;;;;;0.30;0.30;;;;;;;18.84;47.53;101300.25;5098197;28;20051;-44
2023/04/02 07:23:33;;;;;;;0.25;0.25;;;;;;;18.84;47.57;101314.88;5117372;27;20125;-46
2023/04/02 07:25:59;;;;;;;0.30;0.30;;;;;;;18.86;47.29;101320.09;5116756;28;20039;-44
2023/04/02 07:28:24;;;;;;;0.30;0.30;;;;;;;18.83;47.55;101318.75;5116791;28;20392;-46
2023/04/02 07:30:51;;;;;;;0.52;0.52;;;;;;;18.85;47.45;101321.22;5116723;27;20129;-45
2023/04/02 07:33:19;;;;;;;0.30;0.30;;;;;;;18.84;47.41;101334.19;5122550;27;20441;-45
2023/04/02 07:35:45;;;;;;;0.20;0.20;;;;;;;18.85;47.44;101340.53;5131453;27;20050;-46
2023/04/02 07:38:11;;;;;;;0.30;0.30;;;;;;;18.85;47.37;101337.78;5150711;27;20099;-47
2023/04/02 07:40:37;;;;;;;0.30;0.30;;;;;;;18.84;47.44;101359.03;5118631;27;20047;-44
2023/04/02 07:43:03;;;;;;;0.22;0.22;;;;;;;18.85;47.21;101362.59;5117946;27;20456;-45
2023/04/02 07:45:29;;;;;;;0.20;0.20;;;;;;;18.85;47.38;101357.09;5101883;27;20070;-47
2023/04/02 07:47:55;;;;;;;0.20;0.20;;;;;;;18.85;47.35;101365.38;5137555;27;20559;-45
2023/04/02 07:50:21;;;;;;;0.30;0.30;;;;;;;18.84;47.49;101378.34;5137787;27;20051;-45
2023/04/02 07:52:47;;;;;;;0.20;0.20;;;;;;;18.84;47.23;101370.06;5137634;27;20095;-45
2023/04/02 07:55:14;;;;;;;0.30;0.30;;;;;;;18.84;47.37;101377.50;5136706;27;20055;-46
2023/04/02 07:57:48;;;;;;;0.30;0.30;;;;;;;18.85;47.45;101381.94;5118593;27;20494;-46
2023/04/02 08:00:14;;;;;;;0.30;0.30;;;;;;;18.84;47.18;101394.06;5136131;27;20050;-44
2023/04/02 08:02:41;;;;;;;0.20;0.20;;;;;;;18.85;47.25;101384.69;5100973;27;20051;-48
2023/04/02 08:05:07;;;;;;;0.20;0.20;;;;;;;18.84;47.37;101392.13;5117221;28;20043;-44
2023/04/02 08:07:34;;;;;;;0.30;0.30;;;;;;;18.83;47.02;101393.25;5081431;28;20071;-45
2023/04/02 08:10:00;;;;;;;0.30;0.30;;;;;;;18.84;47.41;101402.34;5116685;28;20043;-44
2023/04/02 08:12:26;;;;;;;0.30;0.30;;;;;;;18.84;47.21;101408.69;5116655;27;20055;-46
2023/04/02 08:14:51;;;;;;;0.30;0.30;;;;;;;18.84;47.47;101410.63;5117120;28;20274;-44
2023/04/02 08:17:17;;;;;;;0.20;0.20;;;;;;;18.84;47.38;101416.16;5116487;28;20047;-45
2023/04/02 08:19:43;;;;;;;0.30;0.30;;;;;;;18.84;47.29;101421.66;5116581;28;20457;-45
2023/04/02 08:22:20;;;;;;;0.30;0.30;;;;;;;18.83;47.19;101431.03;5116370;27;20486;-44
2023/04/02 08:24:45;;;;;;;0.30;0.30;;;;;;;18.84;47.27;101440.97;5116817;28;20043;-45
2023/04/02 08:27:13;;;;;;;0.25;0.25;;;;;;;18.84;47.25;101447.34;5116151;28;20043;-45
2023/04/02 08:29:39;;;;;;;0.20;0.20;;;;;;;18.85;47.16;101448.16;5116076;28;20047;-45
2023/04/02 08:32:06;;;;;;;0.30;0.30;;;;;;;18.84;47.20;101444.56;5115638;27;20054;-44
2023/04/02 08:34:31;;;;;;;0.28;0.28;;;;;;;18.84;47.51;101446.50;5149264;27;20038;-45
2023/04/02 08:36:57;;;;;;;0.28;0.28;;;;;;;18.85;47.20;101470.22;5157811;27;20478;-45
2023/04/02 08:39:25;;;;;;;0.30;0.30;;;;;;;18.84;47.29;101466.66;5136307;27;20053;-44
2023/04/02 08:42:02;;;;;;;0.20;0.20;;;;;;;18.83;47.28;101473.28;5136001;27;20171;-44
2023/04/02 08:44:38;;;;;;;0.20;0.20;;;;;;;18.83;47.35;101487.06;5116657;27;20479;-45
2023/04/02 08:47:05;;;;;;;0.30;0.30;;;;;;;18.83;47.19;101486.25;5136760;27;20630;-44
2023/04/02 08:49:38;;;;;;;0.30;0.30;;;;;;;18.83;47.48;101489.81;5134416;27;20042;-45
2023/04/02 08:52:04;;;;;;;0.30;0.30;;;;;;;18.84;47.21;101502.53;5121826;27;20132;-45
2023/04/02 08:54:32;;;;;;;0.30;0.30;;;;;;;18.84;47.21;101507.22;5097223;28;20039;-47
2023/04/02 08:57:03;;;;;;;;;;;;;;;18.83;47.21;101516.59;5100052;27;20100;-48
2023/04/02 08:59:44;;;;;;;0.30;0.30;;;;;;;18.83;47.45;101514.66;5120505;27;19941;-47
2023/04/02 09:04:45;;;;;;;0.20;0.20;;;;;;;18.85;47.11;101519.91;5173755;27;20394;-47
2023/04/02 09:07:13;;;;;;;0.30;0.30;;;;;;;18.87;47.12;101525.97;5134645;27;20418;-44
2023/04/02 09:09:39;;;;;;;0.20;0.20;;;;;;;18.87;47.12;101528.75;5134662;27;20820;-45
2023/04/02 09:12:10;;;;;;;0.30;0.30;;;;;;;18.85;47.29;101530.94;5152870;27;20058;-46
2023/04/02 09:14:43;;;;;;;0.30;0.30;;;;;;;18.84;47.05;101530.13;5134299;27;20518;-45
2023/04/02 09:17:17;;;;;;;0.30;0.30;;;;;;;18.84;47.27;101535.63;5134524;27;20167;-45
2023/04/02 09:19:49;;;;;;;0.30;0.30;;;;;;;18.83;47.09;101527.63;5153317;27;20046;-46
2023/04/02 09:22:31;;;;;;;0.30;0.30;;;;;;;18.84;47.33;101532.88;5152859;27;20555;-44
2023/04/02 09:24:59;;;;;;;0.20;0.20;;;;;;;18.83;47.33;101546.94;5117091;27;20050;-45
2023/04/02 09:27:29;;;;;;;0.20;0.20;;;;;;;18.83;47.13;101556.06;5134175;27;20414;-46
2023/04/02 09:30:03;;;;;;;0.20;0.20;;;;;;;18.84;47.04;101559.66;5134254;27;20070;-45
2023/04/02 09:32:46;;;;;;;0.30;0.30;;;;;;;18.83;47.19;101556.06;5118999;27;20106;-44
2023/04/02 09:35:17;;;;;;;0.30;0.30;;;;;;;18.83;47.19;101564.34;5132247;27;20047;-45
2023/04/02 09:38:17;;;;;;;0.30;0.30;;;;;;;18.84;47.21;101578.97;5099696;27;20462;-48
2023/04/02 09:43:31;;;;;;;0.30;0.30;;;;;;;18.83;47.12;101583.66;5148755;27;20162;-44
2023/04/02 09:46:03;;;;;;;0.20;0.20;;;;;;;18.84;47.08;101590.00;5151887;27;20348;-48
2023/04/02 09:48:35;;;;;;;0.20;0.20;;;;;;;18.84;47.33;101596.34;5118242;27;20042;-47
2023/04/02 09:51:11;;;;;;;0.30;0.30;;;;;;;18.83;47.12;101596.63;5129656;27;20248;-49
2023/04/02 09:53:39;;;;;;;0.30;0.30;;;;;;;18.83;47.29;101607.66;5132667;27;20047;-48
2023/04/02 09:56:20;;;;;;;0.30;0.30;;;;;;;18.84;47.30;101614.84;5114974;27;20039;-47
2023/04/02 09:59:00;;;;;;;;;;;;;;;18.84;47.45;101617.59;5098832;27;20049;-47
2023/04/02 10:01:29;;;;;;;0.20;0.20;;;;;;;18.83;47.45;101625.03;5124014;27;20283;-48
2023/04/02 10:03:55;;;;;;;0.20;0.20;;;;;;;18.83;47.06;101636.09;5077051;28;20053;-48
2023/04/02 10:06:21;;;;;;;0.30;0.30;;;;;;;18.84;47.46;101631.41;5112354;28;20047;-47
2023/04/02 10:08:47;;;;;;;0.20;0.20;;;;;;;18.83;47.18;101625.03;5112299;28;20412;-46
2023/04/02 10:11:18;;;;;;;0.30;0.30;;;;;;;18.83;47.27;101638.84;5111999;27;20046;-47
2023/04/02 10:13:53;;;;;;;0.30;0.30;;;;;;;18.84;47.21;101639.69;5093407;28;20074;-46
2023/04/02 10:16:25;;;;;;;0.20;0.20;;;;;;;18.84;47.08;101636.91;5093299;28;20046;-48
2023/04/02 10:18:57;;;;;;;0.30;0.30;;;;;;;18.84;47.36;101643.25;5112023;28;20052;-48
2023/04/02 10:21:26;;;;;;;0.30;0.30;;;;;;;18.84;47.16;101645.19;5111785;27;20094;-48
2023/04/02 10:23:53;;;;;;;0.20;0.20;;;;;;;18.84;47.49;101651.53;5076662;28;20067;-47
2023/04/02 10:29:48;;;;;;;0.30;0.30;;;;;;;18.83;47.28;101669.19;5175170;27;20650;-44
2023/04/02 10:32:20;;;;;;;0.30;0.30;;;;;;;18.84;47.27;101675.56;5115972;27;20051;-44
2023/04/02 10:35:07;;;;;;;0.20;0.20;;;;;;;18.83;47.27;101680.25;5114541;27;20051;-44
2023/04/02 10:37:57;;;;;;;0.20;0.20;;;;;;;18.83;47.42;101680.25;5132720;27;20082;-46
2023/04/02 10:40:34;;;;;;;0.20;0.20;;;;;;;18.83;47.43;101695.97;5118197;27;20088;-47
2023/04/02 10:46:08;;;;;;;0.30;0.30;;;;;;;18.82;47.40;101700.63;5174248;27;20135;-45
2023/04/02 10:48:44;;;;;;;0.30;0.30;;;;;;;18.83;47.42;101712.53;5153455;27;20054;-46
2023/04/02 10:53:53;;;;;;;0.20;0.20;;;;;;;18.86;47.03;101718.34;5173834;27;20383;-45
2023/04/02 10:56:20;;;;;;;0.20;0.20;;;;;;;18.87;47.27;101716.41;5153549;27;20593;-44
2023/04/02 10:58:58;;;;;;;0.25;0.25;;;;;;;18.85;46.96;101716.69;5153642;27;20465;-44
2023/04/02 11:01:28;;;;;;;0.20;0.20;;;;;;;18.83;47.04;101727.16;5153119;27;20061;-46
2023/04/02 11:03:58;;;;;;;0.30;0.30;;;;;;;18.83;47.43;101735.44;5153607;27;20442;-48
2023/04/02 11:06:29;;;;;;;0.20;0.20;;;;;;;18.83;47.11;101729.91;5153574;27;20127;-45
2023/04/02 11:08:59;;;;;;;0.20;0.20;;;;;;;18.84;47.23;101744.53;5117583;27;20038;-45
2023/04/02 11:11:42;;;;;;;0.22;0.22;;;;;;;18.83;47.25;101742.88;5153676;27;20038;-45
2023/04/02 11:14:26;;;;;;;0.30;0.30;;;;;;;18.83;47.42;101743.72;5131228;27;20164;-45
2023/04/02 11:16:55;;;;;;;0.30;0.30;;;;;;;18.83;47.38;101749.22;5114082;27;20054;-45
2023/04/02 11:19:22;;;;;;;;;;;;;;;18.83;47.13;101752.00;5131445;27;20530;-44
2023/04/02 11:21:51;;;;;;;0.30;0.30;;;;;;;18.83;47.44;101749.22;5144240;27;20001;-45
2023/04/02 11:24:45;;;;;;;0.30;0.30;;;;;;;18.83;47.41;101749.22;5131143;27;20047;-44
2023/04/02 11:27:15;;;;;;;0.30;0.30;;;;;;;18.81;47.45;101754.16;5130980;27;20042;-45
2023/04/02 11:30:01;;;;;;;0.30;0.30;;;;;;;18.82;47.22;101761.34;5130735;27;20082;-44
2023/04/02 11:32:31;;;;;;;0.30;0.30;;;;;;;18.83;47.21;101774.06;5141418;27;20038;-45
2023/04/02 11:35:00;;;;;;;0.30;0.30;;;;;;;18.83;47.20;101773.25;5113974;27;20051;-45
2023/04/02 11:37:43;;;;;;;0.30;0.30;;;;;;;18.83;47.10;101776.00;5114182;27;20494;-45
2023/04/02 11:42:46;;;;;;;0.20;0.20;;;;;;;18.86;47.36;101780.97;5173568;27;20363;-45
2023/04/02 11:45:28;;;;;;;0.20;0.20;;;;;;;18.86;47.15;101778.22;5147632;27;20047;-44
2023/04/02 11:48:23;;;;;;;0.20;0.20;;;;;;;18.84;47.32;101789.53;5131839;27;20051;-44
2023/04/02 11:50:49;;;;;;;0.30;0.30;;;;;;;18.83;47.14;101792.56;5120190;27;20108;-45
2023/04/02 11:56:00;;;;;;;0.20;0.20;;;;;;;18.83;47.51;101804.44;5174854;27;20116;-46
2023/04/02 11:58:49;;;;;;;0.30;0.30;;;;;;;18.83;47.14;101800.84;5153466;27;20078;-44
2023/04/02 12:01:44;;;;;;;0.30;0.30;;;;;;;18.83;47.13;101804.44;5140794;27;20096;-45
2023/04/02 12:04:35;;;;;;;0.30;0.30;;;;;;;18.83;47.10;101807.19;5118069;27;20070;-46
2023/04/02 12:07:19;;;;;;;0.20;0.20;;;;;;;18.83;47.37;101809.94;5127593;27;20475;-44
2023/04/02 12:09:48;;;;;;;0.20;0.20;;;;;;;18.83;47.45;101814.63;5152182;27;20074;-46
2023/04/02 12:12:25;;;;;;;0.30;0.30;;;;;;;18.82;47.44;101819.28;5124394;27;20047;-45
2023/04/02 12:14:54;;;;;;;0.20;0.20;;;;;;;18.83;47.44;101828.44;5133019;27;20433;-45
2023/04/02 12:17:36;;;;;;;;;;;;;;;18.82;47.19;101824.81;5097672;27;20100;-45
2023/04/02 12:22:49;;;;;;;0.30;0.30;;;;;;;18.82;47.21;101827.56;5174473;27;20119;-44
2023/04/02 12:25:28;;;;;;;0.30;0.30;;;;;;;18.82;47.47;101838.63;5135297;27;20039;-44
2023/04/02 12:30:45;;;;;;;0.30;0.30;;;;;;;18.80;47.13;101836.13;5170998;27;20124;-45
2023/04/02 12:35:56;;;;;;;0.30;0.30;;;;;;;18.83;47.44;101851.34;5175091;27;20464;-47